sensor_id;sensor_type;location;lat;lon;timestamp;P1;durP1;ratioP1;P2;durP2;ratioP2
63312;SDS011;49442;45.640;13.812;2024-02-21T00:00:45;3.95;;;2.65;;
63312;SDS011;49442;45.640;13.812;2024-02-21T00:03:11;3.92;;;2.83;;
63312;SDS011;49442;45.640;13.812;2024-02-21T00:05:36;4.45;;;2.70;;
63312;SDS011;49442;45.640;13.812;2024-02-21T00:08:02;3.63;;;2.63;;
63312;SDS011;49442;45.640;13.812;2024-02-21T00:10:28;3.72;;;2.75;;
63312;SDS011;49442;45.640;13.812;2024-02-21T00:12:56;3.63;;;2.22;;
63312;SDS011;49442;45.640;13.812;2024-02-21T00:15:22;4.35;;;2.88;;
63312;SDS011;49442;45.640;13.812;2024-02-21T00:17:48;3.63;;;3.08;;
63312;SDS011;49442;45.640;13.812;2024-02-21T00:20:14;4.60;;;3.13;;
63312;SDS011;49442;45.640;13.812;2024-02-21T00:22:39;5.85;;;3.15;;
63312;SDS011;49442;45.640;13.812;2024-02-21T00:25:05;6.70;;;3.85;;
63312;SDS011;49442;45.640;13.812;2024-02-21T00:27:32;6.85;;;3.55;;
63312;SDS011;49442;45.640;13.812;2024-02-21T00:29:57;6.25;;;4.03;;
63312;SDS011;49442;45.640;13.812;2024-02-21T00:32:23;7.60;;;3.83;;
63312;SDS011;49442;45.640;13.812;2024-02-21T00:34:49;5.45;;;3.20;;
63312;SDS011;49442;45.640;13.812;2024-02-21T00:37:14;5.22;;;3.33;;
63312;SDS011;49442;45.640;13.812;2024-02-21T00:39:40;6.32;;;3.20;;
63312;SDS011;49442;45.640;13.812;2024-02-21T00:42:07;7.32;;;3.88;;
63312;SDS011;49442;45.640;13.812;2024-02-21T00:44:33;5.13;;;3.28;;
63312;SDS011;49442;45.640;13.812;2024-02-21T00:46:58;7.15;;;3.65;;
63312;SDS011;49442;45.640;13.812;2024-02-21T00:49:24;6.95;;;4.15;;
63312;SDS011;49442;45.640;13.812;2024-02-21T00:51:50;5.80;;;3.60;;
63312;SDS011;49442;45.640;13.812;2024-02-21T00:54:16;4.07;;;2.97;;
63312;SDS011;49442;45.640;13.812;2024-02-21T00:56:42;5.10;;;3.25;;
63312;SDS011;49442;45.640;13.812;2024-02-21T00:59:08;5.25;;;3.03;;
63312;SDS011;49442;45.640;13.812;2024-02-21T01:01:33;5.93;;;3.30;;
63312;SDS011;49442;45.640;13.812;2024-02-21T01:03:59;5.13;;;3.55;;
63312;SDS011;49442;45.640;13.812;2024-02-21T01:06:25;5.40;;;2.90;;
63312;SDS011;49442;45.640;13.812;2024-02-21T01:08:50;5.72;;;3.53;;
63312;SDS011;49442;45.640;13.812;2024-02-21T01:11:16;4.25;;;3.10;;
63312;SDS011;49442;45.640;13.812;2024-02-21T01:13:42;4.60;;;3.20;;
63312;SDS011;49442;45.640;13.812;2024-02-21T01:16:08;7.25;;;3.40;;
63312;SDS011;49442;45.640;13.812;2024-02-21T01:18:34;7.05;;;3.03;;
63312;SDS011;49442;45.640;13.812;2024-02-21T01:21:02;3.33;;;2.72;;
63312;SDS011;49442;45.640;13.812;2024-02-21T01:23:28;5.85;;;2.55;;
63312;SDS011;49442;45.640;13.812;2024-02-21T01:25:53;4.70;;;2.53;;
63312;SDS011;49442;45.640;13.812;2024-02-21T01:28:20;2.97;;;2.20;;
63312;SDS011;49442;45.640;13.812;2024-02-21T01:30:46;2.90;;;2.15;;
63312;SDS011;49442;45.640;13.812;2024-02-21T01:33:11;3.35;;;2.13;;
63312;SDS011;49442;45.640;13.812;2024-02-21T01:35:37;3.22;;;2.10;;
63312;SDS011;49442;45.640;13.812;2024-02-21T01:38:03;1.80;;;1.50;;
63312;SDS011;49442;45.640;13.812;2024-02-21T01:40:29;12.27;;;2.13;;
63312;SDS011;49442;45.640;13.812;2024-02-21T01:42:55;5.97;;;1.98;;
63312;SDS011;49442;45.640;13.812;2024-02-21T01:45:21;5.20;;;2.33;;
63312;SDS011;49442;45.640;13.812;2024-02-21T01:47:47;4.10;;;2.70;;
63312;SDS011;49442;45.640;13.812;2024-02-21T01:50:14;2.42;;;1.77;;
63312;SDS011;49442;45.640;13.812;2024-02-21T01:52:41;4.25;;;2.00;;
63312;SDS011;49442;45.640;13.812;2024-02-21T01:55:09;2.42;;;1.80;;
63312;SDS011;49442;45.640;13.812;2024-02-21T01:57:36;3.85;;;2.38;;
63312;SDS011;49442;45.640;13.812;2024-02-21T02:00:02;3.55;;;2.28;;
63312;SDS011;49442;45.640;13.812;2024-02-21T02:02:28;2.33;;;1.98;;
63312;SDS011;49442;45.640;13.812;2024-02-21T02:04:54;3.65;;;2.15;;
63312;SDS011;49442;45.640;13.812;2024-02-21T02:07:21;3.85;;;2.20;;
63312;SDS011;49442;45.640;13.812;2024-02-21T02:09:47;2.63;;;1.92;;
63312;SDS011;49442;45.640;13.812;2024-02-21T02:12:12;1.95;;;1.70;;
63312;SDS011;49442;45.640;13.812;2024-02-21T02:14:38;3.63;;;2.17;;
63312;SDS011;49442;45.640;13.812;2024-02-21T02:17:04;5.35;;;1.92;;
63312;SDS011;49442;45.640;13.812;2024-02-21T02:19:30;4.63;;;1.98;;
63312;SDS011;49442;45.640;13.812;2024-02-21T02:22:00;3.40;;;1.90;;
63312;SDS011;49442;45.640;13.812;2024-02-21T02:24:39;3.53;;;2.17;;
63312;SDS011;49442;45.640;13.812;2024-02-21T02:27:05;2.63;;;2.10;;
63312;SDS011;49442;45.640;13.812;2024-02-21T02:29:32;5.18;;;1.95;;
63312;SDS011;49442;45.640;13.812;2024-02-21T02:31:58;2.38;;;2.05;;
63312;SDS011;49442;45.640;13.812;2024-02-21T02:34:23;5.80;;;2.35;;
63312;SDS011;49442;45.640;13.812;2024-02-21T02:36:49;4.38;;;2.10;;
63312;SDS011;49442;45.640;13.812;2024-02-21T02:39:15;4.13;;;2.45;;
63312;SDS011;49442;45.640;13.812;2024-02-21T02:41:40;2.95;;;1.80;;
63312;SDS011;49442;45.640;13.812;2024-02-21T02:44:06;3.20;;;2.17;;
63312;SDS011;49442;45.640;13.812;2024-02-21T02:46:32;3.90;;;2.08;;
63312;SDS011;49442;45.640;13.812;2024-02-21T02:48:57;4.43;;;2.78;;
63312;SDS011;49442;45.640;13.812;2024-02-21T02:51:23;3.88;;;2.28;;
63312;SDS011;49442;45.640;13.812;2024-02-21T02:53:49;4.95;;;2.47;;
63312;SDS011;49442;45.640;13.812;2024-02-21T02:56:15;5.82;;;2.13;;
63312;SDS011;49442;45.640;13.812;2024-02-21T02:58:41;5.90;;;2.45;;
63312;SDS011;49442;45.640;13.812;2024-02-21T03:01:08;3.80;;;2.28;;
63312;SDS011;49442;45.640;13.812;2024-02-21T03:03:34;2.92;;;2.42;;
63312;SDS011;49442;45.640;13.812;2024-02-21T03:05:59;3.90;;;2.40;;
63312;SDS011;49442;45.640;13.812;2024-02-21T03:08:26;5.85;;;2.35;;
63312;SDS011;49442;45.640;13.812;2024-02-21T03:10:51;4.07;;;2.63;;
63312;SDS011;49442;45.640;13.812;2024-02-21T03:13:17;4.53;;;2.40;;
63312;SDS011;49442;45.640;13.812;2024-02-21T03:15:42;3.35;;;2.22;;
63312;SDS011;49442;45.640;13.812;2024-02-21T03:18:08;4.25;;;2.78;;
63312;SDS011;49442;45.640;13.812;2024-02-21T03:20:34;8.48;;;2.17;;
63312;SDS011;49442;45.640;13.812;2024-02-21T03:22:59;8.10;;;2.45;;
63312;SDS011;49442;45.640;13.812;2024-02-21T03:25:25;3.22;;;2.40;;
63312;SDS011;49442;45.640;13.812;2024-02-21T03:27:51;4.50;;;2.42;;
63312;SDS011;49442;45.640;13.812;2024-02-21T03:30:16;4.20;;;2.38;;
63312;SDS011;49442;45.640;13.812;2024-02-21T03:32:42;8.15;;;3.10;;
63312;SDS011;49442;45.640;13.812;2024-02-21T03:35:08;3.90;;;2.70;;
63312;SDS011;49442;45.640;13.812;2024-02-21T03:37:34;3.35;;;2.20;;
63312;SDS011;49442;45.640;13.812;2024-02-21T03:40:00;3.47;;;2.35;;
63312;SDS011;49442;45.640;13.812;2024-02-21T03:42:27;3.88;;;2.53;;
63312;SDS011;49442;45.640;13.812;2024-02-21T03:44:54;5.00;;;3.00;;
63312;SDS011;49442;45.640;13.812;2024-02-21T03:47:21;2.72;;;2.17;;
63312;SDS011;49442;45.640;13.812;2024-02-21T03:49:46;5.38;;;2.83;;
63312;SDS011;49442;45.640;13.812;2024-02-21T03:52:12;5.50;;;2.55;;
63312;SDS011;49442;45.640;13.812;2024-02-21T03:54:38;5.50;;;2.50;;
63312;SDS011;49442;45.640;13.812;2024-02-21T03:57:04;4.60;;;2.83;;
63312;SDS011;49442;45.640;13.812;2024-02-21T03:59:30;7.35;;;2.65;;
63312;SDS011;49442;45.640;13.812;2024-02-21T04:01:56;3.88;;;2.53;;
63312;SDS011;49442;45.640;13.812;2024-02-21T04:04:22;4.22;;;3.05;;
63312;SDS011;49442;45.640;13.812;2024-02-21T04:06:48;3.92;;;2.50;;
63312;SDS011;49442;45.640;13.812;2024-02-21T04:09:14;4.80;;;2.70;;
63312;SDS011;49442;45.640;13.812;2024-02-21T04:11:40;3.03;;;2.33;;
63312;SDS011;49442;45.640;13.812;2024-02-21T04:14:06;4.45;;;2.55;;
63312;SDS011;49442;45.640;13.812;2024-02-21T04:16:34;4.03;;;2.60;;
63312;SDS011;49442;45.640;13.812;2024-02-21T04:19:00;5.63;;;2.50;;
63312;SDS011;49442;45.640;13.812;2024-02-21T04:21:27;5.28;;;2.40;;
63312;SDS011;49442;45.640;13.812;2024-02-21T04:23:53;5.60;;;2.70;;
63312;SDS011;49442;45.640;13.812;2024-02-21T04:26:18;5.95;;;3.13;;
63312;SDS011;49442;45.640;13.812;2024-02-21T04:28:47;4.63;;;2.60;;
63312;SDS011;49442;45.640;13.812;2024-02-21T04:31:13;3.35;;;2.35;;
63312;SDS011;49442;45.640;13.812;2024-02-21T04:33:38;3.85;;;2.47;;
63312;SDS011;49442;45.640;13.812;2024-02-21T04:36:04;4.60;;;3.03;;
63312;SDS011;49442;45.640;13.812;2024-02-21T04:38:30;5.68;;;2.20;;
63312;SDS011;49442;45.640;13.812;2024-02-21T04:40:56;5.55;;;2.67;;
63312;SDS011;49442;45.640;13.812;2024-02-21T04:43:24;5.03;;;2.75;;
63312;SDS011;49442;45.640;13.812;2024-02-21T04:45:50;4.68;;;3.10;;
63312;SDS011;49442;45.640;13.812;2024-02-21T04:48:16;3.30;;;2.35;;
63312;SDS011;49442;45.640;13.812;2024-02-21T04:50:41;4.32;;;3.05;;
63312;SDS011;49442;45.640;13.812;2024-02-21T04:53:07;6.13;;;2.85;;
63312;SDS011;49442;45.640;13.812;2024-02-21T04:55:33;4.75;;;2.65;;
63312;SDS011;49442;45.640;13.812;2024-02-21T04:57:59;4.28;;;2.63;;
63312;SDS011;49442;45.640;13.812;2024-02-21T05:00:27;7.88;;;2.78;;
63312;SDS011;49442;45.640;13.812;2024-02-21T05:02:53;3.58;;;2.35;;
63312;SDS011;49442;45.640;13.812;2024-02-21T05:05:18;5.13;;;2.83;;
63312;SDS011;49442;45.640;13.812;2024-02-21T05:07:44;4.25;;;2.83;;
63312;SDS011;49442;45.640;13.812;2024-02-21T05:10:10;5.45;;;3.05;;
63312;SDS011;49442;45.640;13.812;2024-02-21T05:12:36;5.05;;;3.00;;
63312;SDS011;49442;45.640;13.812;2024-02-21T05:15:02;3.92;;;2.63;;
63312;SDS011;49442;45.640;13.812;2024-02-21T05:17:28;4.43;;;2.92;;
63312;SDS011;49442;45.640;13.812;2024-02-21T05:19:54;4.32;;;3.22;;
63312;SDS011;49442;45.640;13.812;2024-02-21T05:22:20;4.80;;;2.95;;
63312;SDS011;49442;45.640;13.812;2024-02-21T05:24:45;4.30;;;2.65;;
63312;SDS011;49442;45.640;13.812;2024-02-21T05:27:11;5.53;;;3.00;;
63312;SDS011;49442;45.640;13.812;2024-02-21T05:29:36;5.25;;;3.25;;
63312;SDS011;49442;45.640;13.812;2024-02-21T05:32:03;4.68;;;3.00;;
63312;SDS011;49442;45.640;13.812;2024-02-21T05:34:28;4.72;;;2.90;;
63312;SDS011;49442;45.640;13.812;2024-02-21T05:36:54;6.25;;;3.45;;
63312;SDS011;49442;45.640;13.812;2024-02-21T05:39:20;6.75;;;3.28;;
63312;SDS011;49442;45.640;13.812;2024-02-21T05:41:47;6.65;;;3.08;;
63312;SDS011;49442;45.640;13.812;2024-02-21T05:44:13;6.53;;;3.10;;
63312;SDS011;49442;45.640;13.812;2024-02-21T05:46:39;12.73;;;3.22;;
63312;SDS011;49442;45.640;13.812;2024-02-21T05:49:05;4.47;;;3.25;;
63312;SDS011;49442;45.640;13.812;2024-02-21T05:51:32;6.45;;;3.13;;
63312;SDS011;49442;45.640;13.812;2024-02-21T05:53:58;5.63;;;3.13;;
63312;SDS011;49442;45.640;13.812;2024-02-21T05:56:24;7.13;;;3.35;;
63312;SDS011;49442;45.640;13.812;2024-02-21T05:58:50;19.02;;;3.50;;
63312;SDS011;49442;45.640;13.812;2024-02-21T06:01:15;15.25;;;4.22;;
63312;SDS011;49442;45.640;13.812;2024-02-21T06:03:42;31.95;;;6.65;;
63312;SDS011;49442;45.640;13.812;2024-02-21T06:06:08;55.05;;;7.13;;
63312;SDS011;49442;45.640;13.812;2024-02-21T06:08:33;71.38;;;10.70;;
63312;SDS011;49442;45.640;13.812;2024-02-21T06:10:59;90.40;;;11.77;;
63312;SDS011;49442;45.640;13.812;2024-02-21T06:13:25;93.88;;;10.60;;
63312;SDS011;49442;45.640;13.812;2024-02-21T06:15:50;111.30;;;14.52;;
63312;SDS011;49442;45.640;13.812;2024-02-21T06:18:17;120.78;;;13.25;;
63312;SDS011;49442;45.640;13.812;2024-02-21T06:20:43;79.38;;;10.32;;
63312;SDS011;49442;45.640;13.812;2024-02-21T06:23:09;130.20;;;14.80;;
63312;SDS011;49442;45.640;13.812;2024-02-21T06:25:36;69.93;;;10.63;;
63312;SDS011;49442;45.640;13.812;2024-02-21T06:28:02;46.25;;;5.95;;
63312;SDS011;49442;45.640;13.812;2024-02-21T06:30:27;22.13;;;5.45;;
63312;SDS011;49442;45.640;13.812;2024-02-21T06:32:53;18.15;;;4.78;;
63312;SDS011;49442;45.640;13.812;2024-02-21T06:35:21;6.57;;;3.33;;
63312;SDS011;49442;45.640;13.812;2024-02-21T06:37:49;11.13;;;3.45;;
63312;SDS011;49442;45.640;13.812;2024-02-21T06:40:16;10.25;;;3.30;;
63312;SDS011;49442;45.640;13.812;2024-02-21T06:42:51;6.72;;;3.70;;
63312;SDS011;49442;45.640;13.812;2024-02-21T06:45:16;4.43;;;2.83;;
63312;SDS011;49442;45.640;13.812;2024-02-21T06:47:42;11.93;;;4.78;;
63312;SDS011;49442;45.640;13.812;2024-02-21T06:50:08;16.25;;;5.32;;
63312;SDS011;49442;45.640;13.812;2024-02-21T06:52:34;14.50;;;6.07;;
63312;SDS011;49442;45.640;13.812;2024-02-21T06:55:03;8.30;;;5.15;;
63312;SDS011;49442;45.640;13.812;2024-02-21T06:57:29;12.00;;;5.07;;
63312;SDS011;49442;45.640;13.812;2024-02-21T06:59:55;8.93;;;3.70;;
63312;SDS011;49442;45.640;13.812;2024-02-21T07:02:20;3.70;;;3.10;;
63312;SDS011;49442;45.640;13.812;2024-02-21T07:04:46;7.95;;;3.40;;
63312;SDS011;49442;45.640;13.812;2024-02-21T07:07:12;7.00;;;3.20;;
63312;SDS011;49442;45.640;13.812;2024-02-21T07:09:38;4.35;;;2.88;;
63312;SDS011;49442;45.640;13.812;2024-02-21T07:12:04;4.38;;;2.72;;
63312;SDS011;49442;45.640;13.812;2024-02-21T07:14:31;5.07;;;3.33;;
63312;SDS011;49442;45.640;13.812;2024-02-21T07:16:58;6.82;;;2.80;;
63312;SDS011;49442;45.640;13.812;2024-02-21T07:19:23;4.40;;;3.03;;
63312;SDS011;49442;45.640;13.812;2024-02-21T07:21:49;5.45;;;3.08;;
63312;SDS011;49442;45.640;13.812;2024-02-21T07:24:15;7.72;;;3.38;;
63312;SDS011;49442;45.640;13.812;2024-02-21T07:26:41;7.22;;;3.03;;
63312;SDS011;49442;45.640;13.812;2024-02-21T07:29:08;6.07;;;3.15;;
63312;SDS011;49442;45.640;13.812;2024-02-21T07:31:40;4.53;;;2.90;;
63312;SDS011;49442;45.640;13.812;2024-02-21T07:34:06;6.28;;;3.33;;
63312;SDS011;49442;45.640;13.812;2024-02-21T07:36:32;4.35;;;2.67;;
63312;SDS011;49442;45.640;13.812;2024-02-21T07:38:58;6.30;;;3.10;;
63312;SDS011;49442;45.640;13.812;2024-02-21T07:41:24;8.00;;;2.70;;
63312;SDS011;49442;45.640;13.812;2024-02-21T07:43:51;4.28;;;3.20;;
63312;SDS011;49442;45.640;13.812;2024-02-21T07:46:17;4.97;;;3.25;;
63312;SDS011;49442;45.640;13.812;2024-02-21T07:48:44;6.93;;;2.70;;
63312;SDS011;49442;45.640;13.812;2024-02-21T07:51:11;4.50;;;2.90;;
63312;SDS011;49442;45.640;13.812;2024-02-21T07:53:38;7.35;;;3.40;;
63312;SDS011;49442;45.640;13.812;2024-02-21T07:56:09;5.80;;;3.30;;
63312;SDS011;49442;45.640;13.812;2024-02-21T07:58:39;4.63;;;2.83;;
63312;SDS011;49442;45.640;13.812;2024-02-21T08:01:05;5.10;;;2.80;;
63312;SDS011;49442;45.640;13.812;2024-02-21T08:03:30;6.47;;;3.22;;
63312;SDS011;49442;45.640;13.812;2024-02-21T08:05:56;7.93;;;4.40;;
63312;SDS011;49442;45.640;13.812;2024-02-21T08:08:22;5.65;;;4.22;;
63312;SDS011;49442;45.640;13.812;2024-02-21T08:10:48;7.43;;;4.22;;
63312;SDS011;49442;45.640;13.812;2024-02-21T08:13:14;7.97;;;3.30;;
63312;SDS011;49442;45.640;13.812;2024-02-21T08:15:40;5.05;;;3.25;;
63312;SDS011;49442;45.640;13.812;2024-02-21T08:18:07;4.55;;;3.17;;
63312;SDS011;49442;45.640;13.812;2024-02-21T08:20:33;9.32;;;3.38;;
63312;SDS011;49442;45.640;13.812;2024-02-21T08:22:58;12.05;;;3.25;;
63312;SDS011;49442;45.640;13.812;2024-02-21T08:25:24;9.25;;;3.50;;
63312;SDS011;49442;45.640;13.812;2024-02-21T08:27:50;10.23;;;3.28;;
63312;SDS011;49442;45.640;13.812;2024-02-21T08:30:16;6.07;;;2.90;;
63312;SDS011;49442;45.640;13.812;2024-02-21T08:32:42;4.38;;;2.78;;
63312;SDS011;49442;45.640;13.812;2024-02-21T08:35:08;6.50;;;2.60;;
63312;SDS011;49442;45.640;13.812;2024-02-21T08:37:34;5.78;;;2.63;;
63312;SDS011;49442;45.640;13.812;2024-02-21T08:40:00;7.80;;;2.50;;
63312;SDS011;49442;45.640;13.812;2024-02-21T08:42:33;4.78;;;2.90;;
63312;SDS011;49442;45.640;13.812;2024-02-21T08:45:02;3.22;;;2.50;;
63312;SDS011;49442;45.640;13.812;2024-02-21T08:47:28;3.35;;;2.40;;
63312;SDS011;49442;45.640;13.812;2024-02-21T08:49:54;5.82;;;2.40;;
63312;SDS011;49442;45.640;13.812;2024-02-21T08:52:19;76.10;;;5.43;;
63312;SDS011;49442;45.640;13.812;2024-02-21T08:54:45;3.15;;;2.00;;
63312;SDS011;49442;45.640;13.812;2024-02-21T08:57:11;3.67;;;1.98;;
63312;SDS011;49442;45.640;13.812;2024-02-21T08:59:38;19.17;;;4.15;;
63312;SDS011;49442;45.640;13.812;2024-02-21T09:02:05;10.27;;;2.78;;
63312;SDS011;49442;45.640;13.812;2024-02-21T09:04:32;3.78;;;1.92;;
63312;SDS011;49442;45.640;13.812;2024-02-21T09:06:58;7.43;;;2.13;;
63312;SDS011;49442;45.640;13.812;2024-02-21T09:09:24;3.28;;;2.55;;
63312;SDS011;49442;45.640;13.812;2024-02-21T09:11:49;2.78;;;1.92;;
63312;SDS011;49442;45.640;13.812;2024-02-21T09:14:15;5.93;;;2.40;;
63312;SDS011;49442;45.640;13.812;2024-02-21T09:16:41;5.47;;;2.20;;
63312;SDS011;49442;45.640;13.812;2024-02-21T09:19:06;4.40;;;1.98;;
63312;SDS011;49442;45.640;13.812;2024-02-21T09:21:35;2.22;;;1.73;;
63312;SDS011;49442;45.640;13.812;2024-02-21T09:24:01;4.10;;;2.03;;
63312;SDS011;49442;45.640;13.812;2024-02-21T09:26:27;2.97;;;2.28;;
63312;SDS011;49442;45.640;13.812;2024-02-21T09:28:53;5.97;;;1.92;;
63312;SDS011;49442;45.640;13.812;2024-02-21T09:31:19;3.35;;;2.30;;
63312;SDS011;49442;45.640;13.812;2024-02-21T09:33:45;4.80;;;2.10;;
63312;SDS011;49442;45.640;13.812;2024-02-21T09:36:10;3.08;;;2.17;;
63312;SDS011;49442;45.640;13.812;2024-02-21T09:38:36;6.07;;;2.42;;
63312;SDS011;49442;45.640;13.812;2024-02-21T09:41:15;6.40;;;2.30;;
63312;SDS011;49442;45.640;13.812;2024-02-21T09:43:47;5.95;;;2.25;;
63312;SDS011;49442;45.640;13.812;2024-02-21T09:46:18;5.03;;;2.60;;
63312;SDS011;49442;45.640;13.812;2024-02-21T09:51:15;7.00;;;2.53;;
63312;SDS011;49442;45.640;13.812;2024-02-21T09:53:42;5.35;;;2.97;;
63312;SDS011;49442;45.640;13.812;2024-02-21T09:56:09;10.43;;;2.80;;
63312;SDS011;49442;45.640;13.812;2024-02-21T09:58:36;3.53;;;2.17;;
63312;SDS011;49442;45.640;13.812;2024-02-21T10:01:02;8.38;;;2.80;;
63312;SDS011;49442;45.640;13.812;2024-02-21T10:03:31;6.78;;;2.63;;
63312;SDS011;49442;45.640;13.812;2024-02-21T10:05:58;4.43;;;2.60;;
63312;SDS011;49442;45.640;13.812;2024-02-21T10:08:26;5.10;;;2.90;;
63312;SDS011;49442;45.640;13.812;2024-02-21T10:10:51;4.22;;;2.40;;
63312;SDS011;49442;45.640;13.812;2024-02-21T10:13:27;8.30;;;2.90;;
63312;SDS011;49442;45.640;13.812;2024-02-21T10:16:07;5.35;;;2.30;;
63312;SDS011;49442;45.640;13.812;2024-02-21T10:18:35;7.35;;;1.90;;
63312;SDS011;49442;45.640;13.812;2024-02-21T10:21:02;2.78;;;2.22;;
63312;SDS011;49442;45.640;13.812;2024-02-21T10:23:29;4.00;;;2.10;;
63312;SDS011;49442;45.640;13.812;2024-02-21T10:26:04;3.97;;;2.40;;
63312;SDS011;49442;45.640;13.812;2024-02-21T10:28:31;5.38;;;1.80;;
63312;SDS011;49442;45.640;13.812;2024-02-21T10:30:56;3.90;;;2.17;;
63312;SDS011;49442;45.640;13.812;2024-02-21T10:33:22;3.78;;;1.88;;
63312;SDS011;49442;45.640;13.812;2024-02-21T10:35:50;4.18;;;2.17;;
63312;SDS011;49442;45.640;13.812;2024-02-21T10:38:16;3.35;;;2.28;;
63312;SDS011;49442;45.640;13.812;2024-02-21T10:40:42;4.88;;;2.38;;
63312;SDS011;49442;45.640;13.812;2024-02-21T10:43:11;3.33;;;2.58;;
63312;SDS011;49442;45.640;13.812;2024-02-21T10:45:39;8.70;;;2.77;;
63312;SDS011;49442;45.640;13.812;2024-02-21T10:51:03;3.67;;;2.17;;
63312;SDS011;49442;45.640;13.812;2024-02-21T10:56:31;7.22;;;2.55;;
63312;SDS011;49442;45.640;13.812;2024-02-21T10:59:02;3.55;;;2.30;;
63312;SDS011;49442;45.640;13.812;2024-02-21T11:01:29;3.13;;;2.70;;
63312;SDS011;49442;45.640;13.812;2024-02-21T11:03:57;5.70;;;2.45;;
63312;SDS011;49442;45.640;13.812;2024-02-21T11:06:29;3.97;;;2.35;;
63312;SDS011;49442;45.640;13.812;2024-02-21T11:09:05;4.20;;;2.97;;
63312;SDS011;49442;45.640;13.812;2024-02-21T11:11:39;6.47;;;2.75;;
63312;SDS011;49442;45.640;13.812;2024-02-21T11:14:09;4.60;;;3.25;;
63312;SDS011;49442;45.640;13.812;2024-02-21T11:16:39;8.07;;;3.05;;
63312;SDS011;49442;45.640;13.812;2024-02-21T11:19:25;4.25;;;2.75;;
63312;SDS011;49442;45.640;13.812;2024-02-21T11:21:52;5.18;;;2.30;;
63312;SDS011;49442;45.640;13.812;2024-02-21T11:24:28;6.15;;;3.03;;
63312;SDS011;49442;45.640;13.812;2024-02-21T11:27:08;4.38;;;2.00;;
63312;SDS011;49442;45.640;13.812;2024-02-21T11:29:39;4.45;;;2.20;;
63312;SDS011;49442;45.640;13.812;2024-02-21T11:32:09;7.75;;;2.67;;
63312;SDS011;49442;45.640;13.812;2024-02-21T11:34:36;2.80;;;2.30;;
63312;SDS011;49442;45.640;13.812;2024-02-21T11:37:03;5.57;;;2.38;;
63312;SDS011;49442;45.640;13.812;2024-02-21T11:39:41;3.10;;;2.40;;
63312;SDS011;49442;45.640;13.812;2024-02-21T11:42:07;3.58;;;2.13;;
63312;SDS011;49442;45.640;13.812;2024-02-21T11:44:37;5.07;;;2.40;;
63312;SDS011;49442;45.640;13.812;2024-02-21T11:47:03;4.53;;;2.65;;
63312;SDS011;49442;45.640;13.812;2024-02-21T11:49:30;6.72;;;2.42;;
63312;SDS011;49442;45.640;13.812;2024-02-21T11:51:59;4.10;;;2.70;;
63312;SDS011;49442;45.640;13.812;2024-02-21T11:54:26;4.45;;;2.67;;
63312;SDS011;49442;45.640;13.812;2024-02-21T11:56:52;10.23;;;2.97;;
63312;SDS011;49442;45.640;13.812;2024-02-21T11:59:18;8.95;;;3.20;;
63312;SDS011;49442;45.640;13.812;2024-02-21T12:01:44;2.92;;;2.42;;
63312;SDS011;49442;45.640;13.812;2024-02-21T12:04:10;4.22;;;2.70;;
63312;SDS011;49442;45.640;13.812;2024-02-21T12:06:36;3.55;;;2.60;;
63312;SDS011;49442;45.640;13.812;2024-02-21T12:09:01;5.65;;;3.67;;
63312;SDS011;49442;45.640;13.812;2024-02-21T12:11:27;5.07;;;3.35;;
63312;SDS011;49442;45.640;13.812;2024-02-21T12:14:02;6.55;;;2.60;;
63312;SDS011;49442;45.640;13.812;2024-02-21T12:16:30;6.35;;;3.10;;
63312;SDS011;49442;45.640;13.812;2024-02-21T12:18:56;3.30;;;2.80;;
63312;SDS011;49442;45.640;13.812;2024-02-21T12:21:24;6.60;;;3.10;;
63312;SDS011;49442;45.640;13.812;2024-02-21T12:23:51;6.22;;;2.70;;
63312;SDS011;49442;45.640;13.812;2024-02-21T12:26:16;5.10;;;3.05;;
63312;SDS011;49442;45.640;13.812;2024-02-21T12:28:42;4.47;;;2.72;;
63312;SDS011;49442;45.640;13.812;2024-02-21T12:31:07;5.20;;;2.75;;
63312;SDS011;49442;45.640;13.812;2024-02-21T12:33:33;4.97;;;3.53;;
63312;SDS011;49442;45.640;13.812;2024-02-21T12:36:00;4.50;;;2.47;;
63312;SDS011;49442;45.640;13.812;2024-02-21T12:38:25;4.18;;;2.63;;
63312;SDS011;49442;45.640;13.812;2024-02-21T12:40:51;3.92;;;2.75;;
63312;SDS011;49442;45.640;13.812;2024-02-21T12:43:17;3.95;;;2.90;;
63312;SDS011;49442;45.640;13.812;2024-02-21T12:45:43;4.20;;;3.05;;
63312;SDS011;49442;45.640;13.812;2024-02-21T12:48:09;6.32;;;3.28;;
63312;SDS011;49442;45.640;13.812;2024-02-21T12:50:34;3.40;;;2.53;;
63312;SDS011;49442;45.640;13.812;2024-02-21T12:53:00;8.40;;;2.70;;
63312;SDS011;49442;45.640;13.812;2024-02-21T12:55:26;5.60;;;2.58;;
63312;SDS011;49442;45.640;13.812;2024-02-21T12:57:52;4.20;;;2.60;;
63312;SDS011;49442;45.640;13.812;2024-02-21T13:00:17;5.40;;;3.90;;
63312;SDS011;49442;45.640;13.812;2024-02-21T13:02:45;13.45;;;5.50;;
63312;SDS011;49442;45.640;13.812;2024-02-21T13:05:11;9.60;;;6.05;;
63312;SDS011;49442;45.640;13.812;2024-02-21T13:07:37;10.48;;;6.35;;
63312;SDS011;49442;45.640;13.812;2024-02-21T13:10:02;8.52;;;5.53;;
63312;SDS011;49442;45.640;13.812;2024-02-21T13:12:30;8.27;;;3.90;;
63312;SDS011;49442;45.640;13.812;2024-02-21T13:14:56;10.88;;;5.38;;
63312;SDS011;49442;45.640;13.812;2024-02-21T13:17:21;7.40;;;5.18;;
63312;SDS011;49442;45.640;13.812;2024-02-21T13:19:47;9.02;;;4.75;;
63312;SDS011;49442;45.640;13.812;2024-02-21T13:22:13;8.00;;;4.40;;
63312;SDS011;49442;45.640;13.812;2024-02-21T13:24:38;7.53;;;4.45;;
63312;SDS011;49442;45.640;13.812;2024-02-21T13:27:04;9.23;;;3.95;;
63312;SDS011;49442;45.640;13.812;2024-02-21T13:29:30;5.85;;;3.35;;
63312;SDS011;49442;45.640;13.812;2024-02-21T13:31:55;6.97;;;4.18;;
63312;SDS011;49442;45.640;13.812;2024-02-21T13:34:21;9.23;;;4.28;;
63312;SDS011;49442;45.640;13.812;2024-02-21T13:36:47;5.53;;;3.50;;
63312;SDS011;49442;45.640;13.812;2024-02-21T13:39:13;5.32;;;3.88;;
63312;SDS011;49442;45.640;13.812;2024-02-21T13:41:41;6.25;;;3.88;;
63312;SDS011;49442;45.640;13.812;2024-02-21T13:44:07;5.20;;;3.85;;
63312;SDS011;49442;45.640;13.812;2024-02-21T13:46:34;6.75;;;3.35;;
63312;SDS011;49442;45.640;13.812;2024-02-21T13:49:06;6.05;;;3.47;;
63312;SDS011;49442;45.640;13.812;2024-02-21T13:51:32;6.75;;;4.05;;
63312;SDS011;49442;45.640;13.812;2024-02-21T13:54:01;7.50;;;3.50;;
63312;SDS011;49442;45.640;13.812;2024-02-21T13:56:29;4.35;;;3.35;;
63312;SDS011;49442;45.640;13.812;2024-02-21T13:58:55;9.88;;;3.90;;
63312;SDS011;49442;45.640;13.812;2024-02-21T14:01:20;7.28;;;3.75;;
63312;SDS011;49442;45.640;13.812;2024-02-21T14:03:46;8.65;;;3.85;;
63312;SDS011;49442;45.640;13.812;2024-02-21T14:06:12;4.78;;;3.35;;
63312;SDS011;49442;45.640;13.812;2024-02-21T14:08:37;10.15;;;4.00;;
63312;SDS011;49442;45.640;13.812;2024-02-21T14:11:05;7.65;;;3.78;;
63312;SDS011;49442;45.640;13.812;2024-02-21T14:13:31;5.43;;;3.88;;
63312;SDS011;49442;45.640;13.812;2024-02-21T14:15:57;10.68;;;5.25;;
63312;SDS011;49442;45.640;13.812;2024-02-21T14:18:23;8.75;;;4.35;;
63312;SDS011;49442;45.640;13.812;2024-02-21T14:20:48;6.28;;;3.72;;
63312;SDS011;49442;45.640;13.812;2024-02-21T14:23:14;4.43;;;3.45;;
63312;SDS011;49442;45.640;13.812;2024-02-21T14:25:40;6.18;;;4.25;;
63312;SDS011;49442;45.640;13.812;2024-02-21T14:28:07;5.35;;;3.75;;
63312;SDS011;49442;45.640;13.812;2024-02-21T14:30:34;5.25;;;3.55;;
63312;SDS011;49442;45.640;13.812;2024-02-21T14:33:00;10.30;;;3.80;;
63312;SDS011;49442;45.640;13.812;2024-02-21T14:35:26;6.40;;;3.80;;
63312;SDS011;49442;45.640;13.812;2024-02-21T14:37:52;6.47;;;3.92;;